createdAt,value
2023-04-13T00:07:07.432Z,12.10
2023-04-13T00:15:15.623Z,11.27
2023-04-13T00:23:21.152Z,10.25
2023-04-13T00:31:29.756Z,10.63
2023-04-13T00:39:35.282Z,10.52
2023-04-13T00:47:46.924Z,10.00
2023-04-13T00:55:53.534Z,9.55
2023-04-13T01:04:01.912Z,9.80
2023-04-13T01:12:14.476Z,10.15
2023-04-13T01:20:23.361Z,11.13
2023-04-13T01:28:33.618Z,9.68
2023-04-13T01:36:41.805Z,8.93
2023-04-13T01:44:51.553Z,8.57
2023-04-13T01:53:00.119Z,9.07
2023-04-13T02:01:10.005Z,8.20
2023-04-13T02:09:15.896Z,8.00
2023-04-13T02:17:25.808Z,7.40
2023-04-13T02:25:31.599Z,7.70
2023-04-13T02:33:40.157Z,7.75
2023-04-13T02:41:45.857Z,6.85
2023-04-13T02:49:59.692Z,8.88
2023-04-13T02:58:12.606Z,11.20
2023-04-13T03:06:26.209Z,11.30
2023-04-13T03:14:36.992Z,14.13
2023-04-13T03:22:48.261Z,13.82
2023-04-13T03:30:53.948Z,13.50
2023-04-13T03:39:02.145Z,14.43
2023-04-13T03:47:12.978Z,13.50
2023-04-13T03:55:21.438Z,11.52
2023-04-13T04:03:29.295Z,7.93
2023-04-13T04:11:41.342Z,7.10
2023-04-13T04:19:48.823Z,9.48
2023-04-13T04:28:02.867Z,9.43
2023-04-13T04:36:10.236Z,10.10
2023-04-13T04:44:25.466Z,9.35
2023-04-13T04:52:33.252Z,8.60
2023-04-13T05:00:43.736Z,11.65
2023-04-13T05:08:53.248Z,10.45
2023-04-13T05:17:01.690Z,11.38
2023-04-13T05:25:13.513Z,10.37
2023-04-13T05:33:22.541Z,9.65
2023-04-13T05:41:34.082Z,9.13
2023-04-13T05:49:42.541Z,10.20
2023-04-13T05:57:49.412Z,9.48
2023-04-13T06:05:58.404Z,8.98
2023-04-13T06:14:03.937Z,7.05
2023-04-13T06:22:12.025Z,8.25
2023-04-13T06:30:19.657Z,7.88
2023-04-13T06:38:31.040Z,7.68
2023-04-13T06:46:42.289Z,8.68
2023-04-13T06:54:54.722Z,7.60
2023-04-13T07:03:14.004Z,7.80
2023-04-13T07:11:23.139Z,3.75
2023-04-13T07:19:28.881Z,5.53
2023-04-13T07:28:12.746Z,5.80
2023-04-13T07:36:21.158Z,5.82
2023-04-13T07:44:29.720Z,4.05
2023-04-13T07:52:38.666Z,3.85
2023-04-13T08:00:44.300Z,4.13
2023-04-13T08:08:53.050Z,5.18
2023-04-13T08:16:58.864Z,5.38
2023-04-13T08:25:08.100Z,4.93
2023-04-13T08:33:13.764Z,4.32
2023-04-13T08:41:24.590Z,4.18
2023-04-13T08:49:35.029Z,4.45
2023-04-13T08:58:15.398Z,3.50
2023-04-13T09:06:27.105Z,3.78
2023-04-13T09:14:38.164Z,3.07
2023-04-13T09:22:44.164Z,3.50
2023-04-13T09:30:52.307Z,3.08
2023-04-13T09:38:59.277Z,3.22
2023-04-13T09:47:08.940Z,3.50
2023-04-13T09:55:19.784Z,3.70
2023-04-13T10:03:28.080Z,3.28
2023-04-13T10:11:34.077Z,3.42
2023-04-13T10:19:46.213Z,2.85
2023-04-13T10:28:07.686Z,2.97
2023-04-13T10:36:15.999Z,2.53
2023-04-13T10:44:21.417Z,2.25
2023-04-13T10:52:29.845Z,2.50
2023-04-13T11:00:44.550Z,2.20
2023-04-13T11:09:03.221Z,2.20
2023-04-13T11:17:11.763Z,2.05
2023-04-13T11:25:20.607Z,1.98
2023-04-13T11:33:30.362Z,2.00
2023-04-13T11:41:43.486Z,2.35
2023-04-13T11:49:50.732Z,2.15
2023-04-13T11:57:59.043Z,2.20
2023-04-13T12:06:05.920Z,3.00
2023-04-13T12:22:52.340Z,2.92
2023-04-13T12:31:10.268Z,2.63
2023-04-13T12:39:15.925Z,2.15
2023-04-13T12:47:26.371Z,2.33
2023-04-13T12:55:32.306Z,2.00
2023-04-13T13:03:40.365Z,2.17
2023-04-13T13:11:45.843Z,2.60
2023-04-13T13:19:54.909Z,2.10
2023-04-13T13:52:59.256Z,2.75
2023-04-13T14:01:10.443Z,2.10
2023-04-13T14:09:19.107Z,1.90
2023-04-13T14:17:24.552Z,2.03
2023-04-13T14:25:32.731Z,2.65
2023-04-13T14:33:38.185Z,2.47
2023-04-13T14:41:47.468Z,2.17
2023-04-13T14:49:52.848Z,2.35
2023-04-13T14:58:01.898Z,1.88
2023-04-13T15:06:08.281Z,1.98
2023-04-13T15:14:16.541Z,2.05
2023-04-13T15:22:21.967Z,1.92
2023-04-13T15:30:31.402Z,1.92
2023-04-13T15:38:36.857Z,2.72
2023-04-13T15:46:44.891Z,18.95
2023-04-13T15:54:50.429Z,4.53
2023-04-13T16:02:59.338Z,3.80
2023-04-13T16:11:05.101Z,2.70
2023-04-13T16:19:13.970Z,1.88
2023-04-13T16:27:19.467Z,2.50
2023-04-13T16:35:27.878Z,2.13
2023-04-13T16:43:33.287Z,2.60
2023-04-13T16:51:41.482Z,2.70
2023-04-13T16:59:47.187Z,2.65
2023-04-13T17:07:55.324Z,2.83
2023-04-13T17:16:01.602Z,3.10
2023-04-13T17:24:10.779Z,4.65
2023-04-13T17:32:16.290Z,7.95
2023-04-13T17:40:24.592Z,6.95
2023-04-13T17:48:30.211Z,4.20
2023-04-13T17:56:38.393Z,5.40
2023-04-13T18:04:43.968Z,5.75
2023-04-13T18:12:52.861Z,11.60
2023-04-13T18:20:58.240Z,7.68
2023-04-13T18:29:06.467Z,5.57
2023-04-13T18:37:11.960Z,6.55
2023-04-13T18:45:20.323Z,5.10
2023-04-13T18:53:25.743Z,5.18
2023-04-13T19:01:35.929Z,5.18
2023-04-13T19:09:44.909Z,4.93
2023-04-13T19:17:53.346Z,6.20
2023-04-13T19:25:58.884Z,7.45
2023-04-13T19:34:07.877Z,7.30
2023-04-13T19:42:13.315Z,6.60
2023-04-13T19:50:22.675Z,8.30
2023-04-13T19:58:29.164Z,8.68
2023-04-13T20:06:37.383Z,10.20
2023-04-13T20:14:43.170Z,10.75
2023-04-13T20:22:51.338Z,8.52
2023-04-13T20:30:56.786Z,6.32
2023-04-13T20:39:05.103Z,7.18
2023-04-13T20:47:13.611Z,8.27
2023-04-13T20:55:22.184Z,8.18
2023-04-13T21:03:32.253Z,7.07
2023-04-13T21:11:41.080Z,5.57
2023-04-13T21:19:46.577Z,5.22
2023-04-13T21:27:54.595Z,5.47
2023-04-13T21:36:51.452Z,5.53
2023-04-13T21:44:30.059Z,5.97
2023-04-13T21:52:35.861Z,5.68
2023-04-13T22:00:43.997Z,7.15
2023-04-13T22:08:49.475Z,6.13
2023-04-13T22:16:59.614Z,6.47
2023-04-13T22:25:05.071Z,5.90
2023-04-13T22:33:13.188Z,5.70
2023-04-13T22:41:18.950Z,5.05
2023-04-13T22:49:27.366Z,5.60
2023-04-13T22:57:32.816Z,5.07
2023-04-13T23:05:40.875Z,5.22
2023-04-13T23:13:47.002Z,5.07
2023-04-13T23:21:55.068Z,5.50
2023-04-13T23:30:00.662Z,4.32
2023-04-13T23:38:08.716Z,5.20
2023-04-13T23:46:14.190Z,4.68
2023-04-13T23:54:22.367Z,4.32
